sensor_id;sensor_type;location;lat;lon;timestamp;pressure;altitude;pressure_sealevel;temperature;humidity
32456;BME280;18912;43.270;27.942;2023-02-16T00:00:30;99478.94;;;3.28;49.85
32456;BME280;18912;43.270;27.942;2023-02-16T00:02:56;99465.56;;;3.28;50.14
32456;BME280;18912;43.270;27.942;2023-02-16T00:05:31;99462.41;;;3.23;50.23
32456;BME280;18912;43.270;27.942;2023-02-16T00:07:58;99461.63;;;3.12;50.75
32456;BME280;18912;43.270;27.942;2023-02-16T00:10:28;99448.53;;;3.09;50.51
32456;BME280;18912;43.270;27.942;2023-02-16T00:12:55;99452.56;;;3.03;50.70
32456;BME280;18912;43.270;27.942;2023-02-16T00:15:39;99455.28;;;2.92;50.89
32456;BME280;18912;43.270;27.942;2023-02-16T00:18:14;99454.78;;;2.87;50.41
32456;BME280;18912;43.270;27.942;2023-02-16T00:20:40;99458.72;;;2.72;51.08
32456;BME280;18912;43.270;27.942;2023-02-16T00:23:06;99455.31;;;2.70;50.89
32456;BME280;18912;43.270;27.942;2023-02-16T00:25:31;99445.59;;;2.80;51.03
32456;BME280;18912;43.270;27.942;2023-02-16T00:27:56;99444.31;;;2.95;50.55
32456;BME280;18912;43.270;27.942;2023-02-16T00:30:22;99445.03;;;2.97;50.22
32456;BME280;18912;43.270;27.942;2023-02-16T00:32:48;99449.88;;;3.03;50.65
32456;BME280;18912;43.270;27.942;2023-02-16T00:35:16;99445.06;;;3.18;50.29
32456;BME280;18912;43.270;27.942;2023-02-16T00:37:42;99447.88;;;3.16;50.18
32456;BME280;18912;43.270;27.942;2023-02-16T00:40:09;99444.44;;;3.25;50.16
32456;BME280;18912;43.270;27.942;2023-02-16T00:42:35;99441.44;;;3.19;50.02
32456;BME280;18912;43.270;27.942;2023-02-16T00:45:01;99448.78;;;3.06;50.18
32456;BME280;18912;43.270;27.942;2023-02-16T00:47:40;99437.75;;;2.99;50.32
32456;BME280;18912;43.270;27.942;2023-02-16T00:50:26;99442.69;;;2.72;50.85
32456;BME280;18912;43.270;27.942;2023-02-16T00:52:52;99430.56;;;2.68;50.70
32456;BME280;18912;43.270;27.942;2023-02-16T00:55:22;99441.66;;;2.63;50.67
32456;BME280;18912;43.270;27.942;2023-02-16T01:00:31;99425.47;;;2.76;50.67
32456;BME280;18912;43.270;27.942;2023-02-16T01:03:01;99433.41;;;2.87;50.91
32456;BME280;18912;43.270;27.942;2023-02-16T01:05:29;99424.31;;;2.90;50.04
32456;BME280;18912;43.270;27.942;2023-02-16T01:07:54;99435.13;;;2.88;50.39
32456;BME280;18912;43.270;27.942;2023-02-16T01:10:39;99428.34;;;2.84;50.04
32456;BME280;18912;43.270;27.942;2023-02-16T01:13:24;99422.28;;;2.82;50.16
32456;BME280;18912;43.270;27.942;2023-02-16T01:15:50;99408.13;;;2.70;50.38
32456;BME280;18912;43.270;27.942;2023-02-16T01:18:18;99420.16;;;2.65;50.88
32456;BME280;18912;43.270;27.942;2023-02-16T01:20:44;99420.84;;;2.78;50.36
32456;BME280;18912;43.270;27.942;2023-02-16T01:23:10;99421.81;;;2.77;50.45
32456;BME280;18912;43.270;27.942;2023-02-16T01:25:37;99424.03;;;2.93;50.01
32456;BME280;18912;43.270;27.942;2023-02-16T01:28:16;99426.63;;;2.94;49.77
32456;BME280;18912;43.270;27.942;2023-02-16T01:30:43;99415.00;;;2.84;49.87
32456;BME280;18912;43.270;27.942;2023-02-16T01:33:09;99420.84;;;2.78;49.75
32456;BME280;18912;43.270;27.942;2023-02-16T01:35:34;99411.97;;;2.77;50.08
32456;BME280;18912;43.270;27.942;2023-02-16T01:38:00;99421.19;;;2.84;49.74
32456;BME280;18912;43.270;27.942;2023-02-16T01:43:03;99415.72;;;2.86;49.76
32456;BME280;18912;43.270;27.942;2023-02-16T01:45:35;99427.53;;;2.72;50.22
32456;BME280;18912;43.270;27.942;2023-02-16T01:48:08;99419.41;;;2.74;49.87
32456;BME280;18912;43.270;27.942;2023-02-16T01:56:40;99423.09;;;2.51;50.14
32456;BME280;18912;43.270;27.942;2023-02-16T01:59:23;99415.59;;;2.56;50.62
32456;BME280;18912;43.270;27.942;2023-02-16T02:02:04;99423.31;;;2.59;50.35
32456;BME280;18912;43.270;27.942;2023-02-16T02:04:43;99424.22;;;2.80;49.90
32456;BME280;18912;43.270;27.942;2023-02-16T02:07:54;99399.44;;;2.57;49.80
32456;BME280;18912;43.270;27.942;2023-02-16T02:10:49;99424.69;;;2.53;50.98
32456;BME280;18912;43.270;27.942;2023-02-16T02:13:27;99422.88;;;2.54;51.58
32456;BME280;18912;43.270;27.942;2023-02-16T02:15:53;99424.91;;;2.61;50.31
32456;BME280;18912;43.270;27.942;2023-02-16T02:18:20;99416.06;;;2.50;50.24
32456;BME280;18912;43.270;27.942;2023-02-16T02:21:34;99410.25;;;2.56;50.20
32456;BME280;18912;43.270;27.942;2023-02-16T02:38:01;99401.41;;;2.44;49.77
32456;BME280;18912;43.270;27.942;2023-02-16T02:43:41;99413.56;;;2.37;49.32
32456;BME280;18912;43.270;27.942;2023-02-16T02:48:35;99411.88;;;2.25;50.32
32456;BME280;18912;43.270;27.942;2023-02-16T02:54:11;99411.25;;;2.33;49.80
32456;BME280;18912;43.270;27.942;2023-02-16T02:57:01;99415.50;;;2.35;49.55
32456;BME280;18912;43.270;27.942;2023-02-16T02:59:50;99404.25;;;2.21;49.45
32456;BME280;18912;43.270;27.942;2023-02-16T03:02:38;99403.63;;;2.28;49.62
32456;BME280;18912;43.270;27.942;2023-02-16T03:05:07;99406.19;;;2.30;49.96
32456;BME280;18912;43.270;27.942;2023-02-16T03:07:36;99400.50;;;2.23;50.88
32456;BME280;18912;43.270;27.942;2023-02-16T03:10:18;99391.72;;;2.32;50.07
32456;BME280;18912;43.270;27.942;2023-02-16T03:13:07;99411.81;;;2.05;51.13
32456;BME280;18912;43.270;27.942;2023-02-16T03:15:35;99397.34;;;2.07;50.74
32456;BME280;18912;43.270;27.942;2023-02-16T03:18:04;99410.94;;;2.04;51.10
32456;BME280;18912;43.270;27.942;2023-02-16T03:20:49;99407.19;;;2.07;51.22
32456;BME280;18912;43.270;27.942;2023-02-16T03:23:34;99407.91;;;2.09;51.84
32456;BME280;18912;43.270;27.942;2023-02-16T03:26:19;99416.63;;;2.22;51.83
32456;BME280;18912;43.270;27.942;2023-02-16T03:29:04;99425.00;;;2.06;51.73
32456;BME280;18912;43.270;27.942;2023-02-16T03:31:44;99418.34;;;2.01;51.87
32456;BME280;18912;43.270;27.942;2023-02-16T03:34:11;99423.66;;;2.12;52.11
32456;BME280;18912;43.270;27.942;2023-02-16T03:36:39;99412.50;;;2.18;51.65
32456;BME280;18912;43.270;27.942;2023-02-16T03:39:06;99424.13;;;2.39;51.22
32456;BME280;18912;43.270;27.942;2023-02-16T03:41:33;99400.94;;;2.28;50.50
32456;BME280;18912;43.270;27.942;2023-02-16T03:44:02;99419.00;;;2.36;51.00
32456;BME280;18912;43.270;27.942;2023-02-16T03:46:27;99421.41;;;2.50;51.59
32456;BME280;18912;43.270;27.942;2023-02-16T03:48:53;99419.56;;;2.61;51.47
32456;BME280;18912;43.270;27.942;2023-02-16T03:51:18;99424.88;;;2.72;51.34
32456;BME280;18912;43.270;27.942;2023-02-16T03:53:44;99417.53;;;2.54;50.70
32456;BME280;18912;43.270;27.942;2023-02-16T03:56:09;99423.56;;;2.67;50.61
32456;BME280;18912;43.270;27.942;2023-02-16T03:58:35;99430.16;;;2.52;50.28
32456;BME280;18912;43.270;27.942;2023-02-16T04:01:00;99410.94;;;2.15;50.09
32456;BME280;18912;43.270;27.942;2023-02-16T04:03:26;99425.13;;;2.05;49.89
32456;BME280;18912;43.270;27.942;2023-02-16T04:05:52;99431.44;;;1.92;51.07
32456;BME280;18912;43.270;27.942;2023-02-16T04:08:18;99437.34;;;2.07;50.76
32456;BME280;18912;43.270;27.942;2023-02-16T04:10:43;99433.97;;;1.94;51.61
32456;BME280;18912;43.270;27.942;2023-02-16T04:13:08;99438.69;;;2.02;51.00
32456;BME280;18912;43.270;27.942;2023-02-16T04:15:34;99432.41;;;2.03;50.94
32456;BME280;18912;43.270;27.942;2023-02-16T04:17:59;99429.47;;;2.17;51.03
32456;BME280;18912;43.270;27.942;2023-02-16T04:20:28;99431.94;;;2.09;51.30
32456;BME280;18912;43.270;27.942;2023-02-16T04:22:54;99422.94;;;2.10;51.03
32456;BME280;18912;43.270;27.942;2023-02-16T04:25:21;99429.25;;;2.09;50.42
32456;BME280;18912;43.270;27.942;2023-02-16T04:27:47;99432.66;;;2.11;50.66
32456;BME280;18912;43.270;27.942;2023-02-16T04:30:19;99425.13;;;2.05;51.36
32456;BME280;18912;43.270;27.942;2023-02-16T04:32:45;99436.16;;;1.89;51.53
32456;BME280;18912;43.270;27.942;2023-02-16T04:35:11;99436.50;;;1.73;51.87
32456;BME280;18912;43.270;27.942;2023-02-16T04:37:36;99444.38;;;1.64;52.01
32456;BME280;18912;43.270;27.942;2023-02-16T04:40:03;99425.97;;;1.72;52.05
32456;BME280;18912;43.270;27.942;2023-02-16T04:42:29;99446.19;;;1.63;52.74
32456;BME280;18912;43.270;27.942;2023-02-16T04:44:54;99442.81;;;1.83;52.63
32456;BME280;18912;43.270;27.942;2023-02-16T04:47:20;99441.63;;;1.99;51.60
32456;BME280;18912;43.270;27.942;2023-02-16T04:49:47;99442.81;;;1.83;51.59
32456;BME280;18912;43.270;27.942;2023-02-16T04:52:13;99451.09;;;1.92;52.24
32456;BME280;18912;43.270;27.942;2023-02-16T04:54:38;99438.09;;;1.98;51.28
32456;BME280;18912;43.270;27.942;2023-02-16T04:57:04;99443.69;;;2.06;51.00
32456;BME280;18912;43.270;27.942;2023-02-16T04:59:29;99446.94;;;1.76;50.28
32456;BME280;18912;43.270;27.942;2023-02-16T05:01:55;99446.91;;;1.65;50.73
32456;BME280;18912;43.270;27.942;2023-02-16T05:04:22;99449.72;;;1.75;51.04
32456;BME280;18912;43.270;27.942;2023-02-16T05:06:48;99450.81;;;1.83;51.47
32456;BME280;18912;43.270;27.942;2023-02-16T05:09:13;99456.88;;;1.85;51.33
32456;BME280;18912;43.270;27.942;2023-02-16T05:11:39;99441.38;;;1.68;51.28
32456;BME280;18912;43.270;27.942;2023-02-16T05:14:25;99454.56;;;1.81;52.06
32456;BME280;18912;43.270;27.942;2023-02-16T05:17:11;99458.69;;;1.96;51.31
32456;BME280;18912;43.270;27.942;2023-02-16T05:19:37;99459.31;;;2.00;51.58
32456;BME280;18912;43.270;27.942;2023-02-16T05:22:04;99454.94;;;2.10;51.58
32456;BME280;18912;43.270;27.942;2023-02-16T05:24:29;99460.28;;;2.21;51.04
32456;BME280;18912;43.270;27.942;2023-02-16T05:26:55;99464.41;;;2.14;51.36
32456;BME280;18912;43.270;27.942;2023-02-16T05:29:21;99467.53;;;2.41;50.91
32456;BME280;18912;43.270;27.942;2023-02-16T05:31:46;99460.72;;;2.48;51.05
32456;BME280;18912;43.270;27.942;2023-02-16T05:34:12;99462.97;;;2.74;50.89
32456;BME280;18912;43.270;27.942;2023-02-16T05:36:37;99464.13;;;2.93;50.00
32456;BME280;18912;43.270;27.942;2023-02-16T05:39:03;99472.22;;;3.02;49.82
32456;BME280;18912;43.270;27.942;2023-02-16T05:41:29;99473.75;;;3.16;50.20
32456;BME280;18912;43.270;27.942;2023-02-16T05:43:57;99472.34;;;3.53;49.75
32456;BME280;18912;43.270;27.942;2023-02-16T05:46:24;99463.53;;;3.83;49.19
32456;BME280;18912;43.270;27.942;2023-02-16T05:48:50;99470.63;;;3.93;49.19
32456;BME280;18912;43.270;27.942;2023-02-16T05:51:17;99460.00;;;4.12;48.83
32456;BME280;18912;43.270;27.942;2023-02-16T05:53:43;99464.25;;;4.15;49.02
32456;BME280;18912;43.270;27.942;2023-02-16T05:56:08;99473.13;;;4.55;48.72
32456;BME280;18912;43.270;27.942;2023-02-16T05:58:34;99476.88;;;4.92;48.36
32456;BME280;18912;43.270;27.942;2023-02-16T06:01:00;99467.31;;;5.28;47.72
32456;BME280;18912;43.270;27.942;2023-02-16T06:03:26;99469.53;;;5.70;47.49
32456;BME280;18912;43.270;27.942;2023-02-16T06:05:56;99477.13;;;6.04;47.16
32456;BME280;18912;43.270;27.942;2023-02-16T06:08:22;99475.13;;;6.70;46.57
32456;BME280;18912;43.270;27.942;2023-02-16T06:10:49;99476.03;;;7.05;46.53
32456;BME280;18912;43.270;27.942;2023-02-16T06:13:16;99476.97;;;7.49;46.25
32456;BME280;18912;43.270;27.942;2023-02-16T06:15:41;99488.31;;;8.04;45.55
32456;BME280;18912;43.270;27.942;2023-02-16T06:18:08;99473.41;;;8.35;45.50
32456;BME280;18912;43.270;27.942;2023-02-16T06:20:39;99480.28;;;9.13;44.88
32456;BME280;18912;43.270;27.942;2023-02-16T06:23:06;99484.06;;;9.68;44.06
32456;BME280;18912;43.270;27.942;2023-02-16T06:25:31;99473.28;;;10.63;42.33
32456;BME280;18912;43.270;27.942;2023-02-16T06:27:57;99475.00;;;11.48;41.15
32456;BME280;18912;43.270;27.942;2023-02-16T06:30:24;99480.44;;;11.71;40.75
32456;BME280;18912;43.270;27.942;2023-02-16T06:32:49;99471.22;;;12.46;39.27
32456;BME280;18912;43.270;27.942;2023-02-16T06:35:15;99482.75;;;13.06;37.55
32456;BME280;18912;43.270;27.942;2023-02-16T06:37:40;99476.59;;;13.76;36.94
32456;BME280;18912;43.270;27.942;2023-02-16T06:40:07;99473.31;;;14.29;36.57
32456;BME280;18912;43.270;27.942;2023-02-16T06:42:38;99473.66;;;14.81;35.54
32456;BME280;18912;43.270;27.942;2023-02-16T06:45:04;99465.47;;;15.29;34.68
32456;BME280;18912;43.270;27.942;2023-02-16T06:47:29;99475.28;;;15.83;33.45
32456;BME280;18912;43.270;27.942;2023-02-16T06:49:55;99475.28;;;16.29;32.08
32456;BME280;18912;43.270;27.942;2023-02-16T06:52:20;99479.09;;;17.12;30.79
32456;BME280;18912;43.270;27.942;2023-02-16T06:54:46;99469.78;;;17.32;30.41
32456;BME280;18912;43.270;27.942;2023-02-16T06:57:11;99474.94;;;17.91;29.61
32456;BME280;18912;43.270;27.942;2023-02-16T06:59:37;99469.38;;;18.53;28.60
32456;BME280;18912;43.270;27.942;2023-02-16T07:02:02;99465.72;;;19.32;27.63
32456;BME280;18912;43.270;27.942;2023-02-16T07:04:28;99467.16;;;19.82;26.25
32456;BME280;18912;43.270;27.942;2023-02-16T07:06:53;99470.38;;;20.32;25.97
32456;BME280;18912;43.270;27.942;2023-02-16T07:09:19;99466.63;;;21.30;24.72
32456;BME280;18912;43.270;27.942;2023-02-16T07:11:44;99461.53;;;22.57;23.74
32456;BME280;18912;43.270;27.942;2023-02-16T07:14:10;99463.84;;;23.41;23.13
32456;BME280;18912;43.270;27.942;2023-02-16T07:16:35;99466.16;;;23.49;22.13
32456;BME280;18912;43.270;27.942;2023-02-16T07:19:01;99467.44;;;25.37;20.90
32456;BME280;18912;43.270;27.942;2023-02-16T07:21:26;99469.38;;;26.58;20.10
32456;BME280;18912;43.270;27.942;2023-02-16T07:23:52;99459.78;;;28.04;18.73
32456;BME280;18912;43.270;27.942;2023-02-16T07:26:17;99461.38;;;30.14;17.65
32456;BME280;18912;43.270;27.942;2023-02-16T07:28:43;99452.09;;;31.01;16.31
32456;BME280;18912;43.270;27.942;2023-02-16T07:31:11;99456.25;;;29.18;16.95
32456;BME280;18912;43.270;27.942;2023-02-16T07:33:37;99445.88;;;27.99;18.32
32456;BME280;18912;43.270;27.942;2023-02-16T07:36:03;99448.41;;;24.57;20.11
32456;BME280;18912;43.270;27.942;2023-02-16T07:38:29;99436.56;;;23.23;21.56
32456;BME280;18912;43.270;27.942;2023-02-16T07:40:55;99430.81;;;23.08;22.41
32456;BME280;18912;43.270;27.942;2023-02-16T07:43:22;99437.56;;;21.79;22.80
32456;BME280;18912;43.270;27.942;2023-02-16T07:45:47;99435.31;;;21.76;23.24
32456;BME280;18912;43.270;27.942;2023-02-16T07:48:13;99433.91;;;20.94;23.46
32456;BME280;18912;43.270;27.942;2023-02-16T07:50:38;99432.22;;;21.73;23.15
32456;BME280;18912;43.270;27.942;2023-02-16T07:53:04;99431.09;;;21.85;23.20
32456;BME280;18912;43.270;27.942;2023-02-16T07:55:30;99415.78;;;21.89;23.21
32456;BME280;18912;43.270;27.942;2023-02-16T07:57:55;99426.44;;;21.86;22.98
32456;BME280;18912;43.270;27.942;2023-02-16T08:00:25;99434.97;;;21.84;22.96
32456;BME280;18912;43.270;27.942;2023-02-16T08:02:50;99433.94;;;20.71;23.69
32456;BME280;18912;43.270;27.942;2023-02-16T08:05:16;99429.56;;;20.59;23.40
32456;BME280;18912;43.270;27.942;2023-02-16T08:07:42;99420.28;;;19.95;23.59
32456;BME280;18912;43.270;27.942;2023-02-16T08:10:08;99424.47;;;19.98;23.39
32456;BME280;18912;43.270;27.942;2023-02-16T08:12:34;99434.09;;;20.41;23.07
32456;BME280;18912;43.270;27.942;2023-02-16T08:14:59;99413.50;;;21.30;22.97
32456;BME280;18912;43.270;27.942;2023-02-16T08:17:25;99417.81;;;20.75;23.13
32456;BME280;18912;43.270;27.942;2023-02-16T08:19:50;99413.50;;;20.09;23.51
32456;BME280;18912;43.270;27.942;2023-02-16T08:22:16;99425.50;;;20.50;22.45
32456;BME280;18912;43.270;27.942;2023-02-16T08:24:42;99422.84;;;20.66;22.66
32456;BME280;18912;43.270;27.942;2023-02-16T08:27:08;99432.56;;;19.93;23.16
32456;BME280;18912;43.270;27.942;2023-02-16T08:29:33;99425.59;;;20.43;22.39
32456;BME280;18912;43.270;27.942;2023-02-16T08:32:00;99425.50;;;18.78;22.83
32456;BME280;18912;43.270;27.942;2023-02-16T08:34:28;99431.06;;;19.67;22.38
32456;BME280;18912;43.270;27.942;2023-02-16T08:36:55;99433.38;;;19.82;22.74
32456;BME280;18912;43.270;27.942;2023-02-16T08:39:24;99428.63;;;19.89;21.24
32456;BME280;18912;43.270;27.942;2023-02-16T08:41:51;99425.78;;;20.07;20.92
32456;BME280;18912;43.270;27.942;2023-02-16T08:44:17;99430.28;;;19.90;21.06
32456;BME280;18912;43.270;27.942;2023-02-16T08:46:44;99433.84;;;20.55;20.77
32456;BME280;18912;43.270;27.942;2023-02-16T08:49:10;99421.41;;;20.29;20.73
32456;BME280;18912;43.270;27.942;2023-02-16T08:51:42;99428.94;;;20.33;20.36
32456;BME280;18912;43.270;27.942;2023-02-16T08:54:08;99423.13;;;21.27;20.32
32456;BME280;18912;43.270;27.942;2023-02-16T08:56:37;99415.63;;;21.00;19.06
32456;BME280;18912;43.270;27.942;2023-02-16T08:59:03;99421.28;;;21.33;19.60
32456;BME280;18912;43.270;27.942;2023-02-16T09:01:29;99423.28;;;21.37;19.56
32456;BME280;18912;43.270;27.942;2023-02-16T09:03:54;99424.44;;;21.53;19.61
32456;BME280;18912;43.270;27.942;2023-02-16T09:06:21;99431.03;;;21.80;18.59
32456;BME280;18912;43.270;27.942;2023-02-16T09:08:51;99427.38;;;22.08;18.06
32456;BME280;18912;43.270;27.942;2023-02-16T09:11:17;99427.03;;;22.21;17.96
32456;BME280;18912;43.270;27.942;2023-02-16T09:13:42;99422.91;;;21.46;19.09
32456;BME280;18912;43.270;27.942;2023-02-16T09:16:14;99416.25;;;21.30;19.44
32456;BME280;18912;43.270;27.942;2023-02-16T09:18:41;99418.47;;;21.16;19.48
32456;BME280;18912;43.270;27.942;2023-02-16T09:21:09;99422.03;;;21.73;19.87
32456;BME280;18912;43.270;27.942;2023-02-16T09:23:37;99420.38;;;22.34;18.74
32456;BME280;18912;43.270;27.942;2023-02-16T09:26:04;99422.84;;;21.57;19.18
32456;BME280;18912;43.270;27.942;2023-02-16T09:28:32;99417.06;;;21.42;19.35
32456;BME280;18912;43.270;27.942;2023-02-16T09:30:59;99421.47;;;21.43;20.04
32456;BME280;18912;43.270;27.942;2023-02-16T09:33:25;99411.78;;;22.30;20.16
32456;BME280;18912;43.270;27.942;2023-02-16T09:35:52;99416.50;;;22.35;19.34
32456;BME280;18912;43.270;27.942;2023-02-16T09:38:18;99414.00;;;22.50;19.36
32456;BME280;18912;43.270;27.942;2023-02-16T09:40:44;99418.34;;;21.51;19.56
32456;BME280;18912;43.270;27.942;2023-02-16T09:43:36;99414.78;;;21.95;18.89
32456;BME280;18912;43.270;27.942;2023-02-16T09:46:07;99412.09;;;22.34;19.10
32456;BME280;18912;43.270;27.942;2023-02-16T09:48:36;99405.50;;;22.35;19.31
32456;BME280;18912;43.270;27.942;2023-02-16T09:51:04;99408.72;;;21.65;19.47
32456;BME280;18912;43.270;27.942;2023-02-16T09:56:28;99401.13;;;22.55;18.53
32456;BME280;18912;43.270;27.942;2023-02-16T09:59:03;99391.53;;;21.75;18.47
32456;BME280;18912;43.270;27.942;2023-02-16T10:01:46;99395.09;;;21.75;19.05
32456;BME280;18912;43.270;27.942;2023-02-16T10:06:50;99391.19;;;21.71;18.63
32456;BME280;18912;43.270;27.942;2023-02-16T10:09:19;99391.44;;;21.70;19.12
32456;BME280;18912;43.270;27.942;2023-02-16T10:11:52;99394.72;;;22.50;19.15
32456;BME280;18912;43.270;27.942;2023-02-16T10:20:21;99381.66;;;23.00;18.58
32456;BME280;18912;43.270;27.942;2023-02-16T10:22:54;99390.88;;;23.10;18.94
32456;BME280;18912;43.270;27.942;2023-02-16T10:28:19;99381.81;;;22.55;19.25
32456;BME280;18912;43.270;27.942;2023-02-16T10:31:12;99377.34;;;22.66;18.21
32456;BME280;18912;43.270;27.942;2023-02-16T10:36:54;99372.31;;;23.49;19.00
32456;BME280;18912;43.270;27.942;2023-02-16T10:42:28;99374.59;;;24.11;18.14
32456;BME280;18912;43.270;27.942;2023-02-16T10:47:41;99369.25;;;22.43;19.66
32456;BME280;18912;43.270;27.942;2023-02-16T10:55:57;99360.25;;;21.64;19.84
32456;BME280;18912;43.270;27.942;2023-02-16T10:58:25;99350.81;;;22.26;19.96
32456;BME280;18912;43.270;27.942;2023-02-16T11:01:13;99359.25;;;22.37;19.80
32456;BME280;18912;43.270;27.942;2023-02-16T11:03:44;99351.19;;;21.97;20.73
32456;BME280;18912;43.270;27.942;2023-02-16T11:06:18;99348.75;;;22.55;20.75
32456;BME280;18912;43.270;27.942;2023-02-16T11:11:17;99350.16;;;22.74;20.19
32456;BME280;18912;43.270;27.942;2023-02-16T11:13:47;99341.31;;;22.94;18.99
32456;BME280;18912;43.270;27.942;2023-02-16T11:16:22;99343.53;;;22.97;18.08
32456;BME280;18912;43.270;27.942;2023-02-16T11:21:42;99331.31;;;22.88;18.52
32456;BME280;18912;43.270;27.942;2023-02-16T11:24:11;99330.41;;;22.61;19.24
32456;BME280;18912;43.270;27.942;2023-02-16T11:26:38;99328.00;;;22.64;19.56
32456;BME280;18912;43.270;27.942;2023-02-16T11:29:19;99329.34;;;23.10;18.84
32456;BME280;18912;43.270;27.942;2023-02-16T11:31:45;99313.28;;;23.02;18.94
32456;BME280;18912;43.270;27.942;2023-02-16T11:34:32;99319.16;;;23.10;18.79
32456;BME280;18912;43.270;27.942;2023-02-16T11:39:34;99318.16;;;21.19;21.00
32456;BME280;18912;43.270;27.942;2023-02-16T11:42:04;99327.94;;;20.01;26.18
32456;BME280;18912;43.270;27.942;2023-02-16T11:44:40;99315.94;;;19.49;27.96
32456;BME280;18912;43.270;27.942;2023-02-16T11:47:23;99309.00;;;18.21;28.85
32456;BME280;18912;43.270;27.942;2023-02-16T11:50:06;99321.72;;;17.11;30.52
32456;BME280;18912;43.270;27.942;2023-02-16T11:52:32;99302.47;;;16.93;31.16
32456;BME280;18912;43.270;27.942;2023-02-16T11:54:59;99295.91;;;17.31;30.45
32456;BME280;18912;43.270;27.942;2023-02-16T11:57:34;99300.59;;;16.55;31.03
32456;BME280;18912;43.270;27.942;2023-02-16T12:00:12;99295.94;;;17.25;30.38
32456;BME280;18912;43.270;27.942;2023-02-16T12:11:37;99302.19;;;14.34;31.72
32456;BME280;18912;43.270;27.942;2023-02-16T12:14:22;99306.03;;;13.78;32.04
32456;BME280;18912;43.270;27.942;2023-02-16T12:17:20;99294.94;;;13.73;31.85
32456;BME280;18912;43.270;27.942;2023-02-16T12:20:02;99304.22;;;13.57;31.51
32456;BME280;18912;43.270;27.942;2023-02-16T12:25:45;99300.22;;;12.90;34.76
32456;BME280;18912;43.270;27.942;2023-02-16T12:28:26;99294.19;;;13.09;35.77
32456;BME280;18912;43.270;27.942;2023-02-16T12:36:34;99297.16;;;12.07;39.61
32456;BME280;18912;43.270;27.942;2023-02-16T12:42:11;99298.47;;;12.11;41.04
32456;BME280;18912;43.270;27.942;2023-02-16T12:44:45;99283.72;;;11.99;42.63
32456;BME280;18912;43.270;27.942;2023-02-16T12:47:27;99294.16;;;12.16;43.74
32456;BME280;18912;43.270;27.942;2023-02-16T12:50:00;99292.56;;;12.22;42.60
32456;BME280;18912;43.270;27.942;2023-02-16T12:52:55;99292.72;;;12.35;42.76
32456;BME280;18912;43.270;27.942;2023-02-16T12:55:41;99260.72;;;11.95;43.34
32456;BME280;18912;43.270;27.942;2023-02-16T13:03:39;99281.63;;;11.43;44.73
32456;BME280;18912;43.270;27.942;2023-02-16T13:08:54;99274.81;;;11.09;44.65
32456;BME280;18912;43.270;27.942;2023-02-16T13:11:31;99272.09;;;11.32;43.61
32456;BME280;18912;43.270;27.942;2023-02-16T13:14:00;99268.16;;;11.35;44.74
32456;BME280;18912;43.270;27.942;2023-02-16T13:19:03;99277.78;;;10.77;44.49
32456;BME280;18912;43.270;27.942;2023-02-16T13:38:26;99271.53;;;10.99;41.52
32456;BME280;18912;43.270;27.942;2023-02-16T13:41:08;99271.63;;;10.38;41.32
32456;BME280;18912;43.270;27.942;2023-02-16T13:46:38;99261.72;;;10.53;41.74
32456;BME280;18912;43.270;27.942;2023-02-16T13:49:05;99260.31;;;10.65;41.06
32456;BME280;18912;43.270;27.942;2023-02-16T13:51:41;99263.34;;;10.62;40.37
32456;BME280;18912;43.270;27.942;2023-02-16T13:54:22;99265.47;;;10.52;40.80
32456;BME280;18912;43.270;27.942;2023-02-16T13:56:50;99259.09;;;10.68;40.00
32456;BME280;18912;43.270;27.942;2023-02-16T14:01:45;99259.69;;;10.55;39.93
32456;BME280;18912;43.270;27.942;2023-02-16T14:09:32;99257.63;;;10.34;39.93
32456;BME280;18912;43.270;27.942;2023-02-16T14:19:56;99254.72;;;10.44;41.05
32456;BME280;18912;43.270;27.942;2023-02-16T14:22:36;99245.25;;;10.85;41.48
32456;BME280;18912;43.270;27.942;2023-02-16T14:25:29;99254.38;;;10.39;41.69
32456;BME280;18912;43.270;27.942;2023-02-16T14:27:58;99250.44;;;10.50;41.99
32456;BME280;18912;43.270;27.942;2023-02-16T14:35:37;99239.69;;;10.64;42.19
32456;BME280;18912;43.270;27.942;2023-02-16T14:38:06;99247.56;;;10.51;42.51
32456;BME280;18912;43.270;27.942;2023-02-16T14:40:55;99222.31;;;10.36;43.47
32456;BME280;18912;43.270;27.942;2023-02-16T15:00:15;99223.81;;;10.08;46.02
32456;BME280;18912;43.270;27.942;2023-02-16T15:03:12;99224.75;;;9.84;46.85
32456;BME280;18912;43.270;27.942;2023-02-16T15:05:40;99223.03;;;9.53;47.88
32456;BME280;18912;43.270;27.942;2023-02-16T15:08:15;99223.09;;;9.36;48.44
32456;BME280;18912;43.270;27.942;2023-02-16T15:10:43;99225.84;;;9.67;47.97
32456;BME280;18912;43.270;27.942;2023-02-16T15:13:22;99217.19;;;10.18;46.91
32456;BME280;18912;43.270;27.942;2023-02-16T15:15:51;99221.78;;;10.18;47.18
32456;BME280;18912;43.270;27.942;2023-02-16T15:18:20;99213.91;;;9.54;48.41
32456;BME280;18912;43.270;27.942;2023-02-16T15:20:49;99220.81;;;9.64;48.49
32456;BME280;18912;43.270;27.942;2023-02-16T15:25:55;99215.63;;;9.55;48.75
32456;BME280;18912;43.270;27.942;2023-02-16T15:28:33;99221.09;;;9.22;48.75
32456;BME280;18912;43.270;27.942;2023-02-16T15:31:33;99220.06;;;9.31;49.27
32456;BME280;18912;43.270;27.942;2023-02-16T15:34:01;99214.63;;;9.48;48.78
32456;BME280;18912;43.270;27.942;2023-02-16T15:36:38;99221.38;;;9.52;48.50
32456;BME280;18912;43.270;27.942;2023-02-16T15:39:06;99221.72;;;9.49;48.13
32456;BME280;18912;43.270;27.942;2023-02-16T15:41:36;99224.84;;;8.89;49.41
32456;BME280;18912;43.270;27.942;2023-02-16T15:44:04;99224.66;;;9.15;48.94
32456;BME280;18912;43.270;27.942;2023-02-16T15:48:56;99223.00;;;8.82;50.10
32456;BME280;18912;43.270;27.942;2023-02-16T15:51:29;99215.03;;;9.20;49.47
32456;BME280;18912;43.270;27.942;2023-02-16T15:54:04;99212.72;;;9.09;49.68
32456;BME280;18912;43.270;27.942;2023-02-16T15:59:25;99222.63;;;8.20;52.35